Time;durP1;ratioP1;P1;durP2;ratioP2;P2;SDS_P1;SDS_P2;PMS_P1;PMS_P2;Temp;Humidity;BMP_temperature;BMP_pressure;BME280_temperature;BME280_humidity;BME280_pressure;Samples;Min_cycle;Max_cycle;Signal;HPM_P1;HPM_P2
2023/10/25 01:14:09;;;;;;;;;;;;;;;19.97;63.98;97933.06;2069884;28;19921;-66
2023/10/25 01:15:12;;;;;;;;;;;;;;;19.95;64.26;97924.41;2080458;28;19925;-65
2023/10/25 01:16:13;;;;;;;;;;;;;;;19.94;63.97;97923.56;2081094;28;19920;-65
2023/10/25 01:17:15;;;;;;;;;;;;;;;19.95;64.33;97927.91;2078798;28;19921;-66
2023/10/25 01:18:15;;;;;;;;;;;;;;;19.95;64.06;97916.34;2080891;28;19925;-66
2023/10/25 01:19:17;;;;;;;;;;;;;;;19.94;63.97;97926.25;2083420;28;19931;-66
2023/10/25 01:20:19;;;;;;;;;;;;;;;19.95;64.01;97921.72;2084801;28;20414;-66
2023/10/25 01:21:20;;;;;;;;;;;;;;;19.95;64.21;97924.41;2082004;28;19935;-66
2023/10/25 01:22:24;;;;;;;;;;;;;;;19.96;64.16;97917.97;2080956;28;20390;-66
2023/10/25 01:23:25;;;;;;;;;;;;;;;19.96;63.99;97915.28;2081637;28;19978;-66
2023/10/25 01:24:27;;;;;;;;;;;;;;;19.95;64.02;97914.47;2081913;28;19925;-65
2023/10/25 01:25:27;;;;;;;;;;;;;;;19.95;63.92;97909.06;2082149;28;19928;-66
2023/10/25 01:26:29;;;;;;;;;;;;;;;19.95;64.05;97911.75;2081118;28;20405;-66
2023/10/25 01:27:29;;;;;;;;;;;;;;;19.93;63.99;97908.47;2080250;28;19932;-65
2023/10/25 01:28:31;;;;;;;;;;;;;;;19.94;63.89;97915.50;2085412;28;20564;-66
2023/10/25 01:29:32;;;;;;;;;;;;;;;19.95;63.94;97906.38;2083228;28;19920;-66
2023/10/25 01:30:33;;;;;;;;;;;;;;;19.98;64.10;97905.09;2079885;28;20008;-66
2023/10/25 01:33:15;;;;;;;;;;;;;;;19.94;63.94;97906.59;2080574;28;19921;-66
2023/10/25 01:34:18;;;;;;;;;;;;;;;19.95;64.14;97919.84;2081606;28;19929;-65
2023/10/25 01:35:19;;;;;;;;;;;;;;;19.94;64.20;97914.69;2078550;28;19921;-66
2023/10/25 01:36:21;;;;;;;;;;;;;;;19.96;64.01;97926.03;2081227;28;20034;-66
2023/10/25 01:37:21;;;;;;;;;;;;;;;19.95;63.84;97924.41;2083565;28;19920;-67
2023/10/25 01:38:24;;;;;;;;;;;;;;;19.93;63.89;97924.63;2082921;28;19921;-66
2023/10/25 01:39:25;;;;;;;;;;;;;;;19.94;64.06;97926.25;2080552;28;19932;-66
2023/10/25 01:40:25;;;;;;;;;;;;;;;19.95;63.93;97927.09;2082138;28;20299;-66
2023/10/25 01:41:27;;;;;;;;;;;;;;;19.95;63.84;97929.78;2081759;28;19974;-66
2023/10/25 01:42:27;;;;;;;;;;;;;;;19.95;63.89;97922.53;2083390;28;19936;-66
2023/10/25 01:43:29;;;;;;;;;;;;;;;19.94;64.12;97920.88;2083159;28;19929;-66
2023/10/25 01:44:29;;;;;;;;;;;;;;;19.95;64.14;97919.03;2081713;28;19932;-67
2023/10/25 01:45:31;;;;;;;;;;;;;;;19.95;63.71;97917.16;2082167;28;19995;-66
2023/10/25 01:46:32;;;;;;;;;;;;;;;19.94;64.00;97912.81;2082127;28;19935;-66
2023/10/25 01:47:33;;;;;;;;;;;;;;;19.94;63.70;97912.81;2083951;28;19925;-66
2023/10/25 01:48:36;;;;;;;;;;;;;;;19.93;63.79;97905.78;2081516;28;20414;-66
2023/10/25 01:49:36;;;;;;;;;;;;;;;19.93;63.79;97899.59;2081787;28;19966;-66
2023/10/25 01:50:38;;;;;;;;;;;;;;;19.92;63.75;97896.09;2075520;28;19936;-65
2023/10/25 01:51:39;;;;;;;;;;;;;;;19.92;63.56;97885.31;2079399;28;19925;-66
2023/10/25 01:52:40;;;;;;;;;;;;;;;19.90;64.15;97892.78;2083443;28;20011;-66
2023/10/25 01:53:42;;;;;;;;;;;;;;;19.93;63.80;97894.19;2080137;28;20315;-67
2023/10/25 01:54:45;;;;;;;;;;;;;;;19.93;63.97;97904.97;2080863;28;19994;-66
2023/10/25 01:55:48;;;;;;;;;;;;;;;19.93;63.84;97899.59;2079174;28;19932;-66
2023/10/25 01:56:49;;;;;;;;;;;;;;;19.93;63.98;97899.59;2081938;28;20419;-66
2023/10/25 01:57:50;;;;;;;;;;;;;;;19.93;64.08;97897.72;2082675;28;19928;-67
2023/10/25 01:58:51;;;;;;;;;;;;;;;19.93;63.97;97892.34;2082946;28;19927;-66
2023/10/25 01:59:52;;;;;;;;;;;;;;;19.92;63.97;97900.63;2082161;28;20409;-66
2023/10/25 02:00:53;;;;;;;;;;;;;;;19.91;64.01;97901.69;2083484;28;20507;-66
2023/10/25 02:01:54;;;;;;;;;;;;;;;19.92;63.91;97890.69;2083555;28;19982;-66
2023/10/25 02:02:55;;;;;;;;;;;;;;;19.92;63.70;97885.31;2081517;28;19921;-66
2023/10/25 02:03:57;;;;;;;;;;;;;;;19.93;63.76;97881.56;2083768;28;19925;-66
2023/10/25 02:04:58;;;;;;;;;;;;;;;19.93;63.81;97886.13;2084154;28;19965;-65
2023/10/25 02:05:59;;;;;;;;;;;;;;;19.92;64.04;97887.16;2083347;28;19975;-66
2023/10/25 02:07:00;;;;;;;;;;;;;;;19.93;63.93;97897.72;2082415;28;19924;-66
2023/10/25 02:08:02;;;;;;;;;;;;;;;19.92;63.70;97889.84;2072086;28;20016;-65
2023/10/25 02:09:04;;;;;;;;;;;;;;;19.91;63.63;97890.91;2081512;28;19928;-66
2023/10/25 02:10:06;;;;;;;;;;;;;;;19.91;63.79;97882.84;2080210;28;19925;-65
2023/10/25 02:11:06;;;;;;;;;;;;;;;19.90;63.84;97879.34;2080959;28;19924;-66
2023/10/25 02:12:08;;;;;;;;;;;;;;;19.91;63.89;97888.22;2082702;28;19925;-66
2023/10/25 02:13:09;;;;;;;;;;;;;;;19.90;63.98;97879.34;2082233;28;19921;-66
2023/10/25 02:14:11;;;;;;;;;;;;;;;19.92;63.75;97887.16;2074357;28;21113;-66
2023/10/25 02:15:11;;;;;;;;;;;;;;;19.93;64.04;97886.13;2080212;28;20328;-67
2023/10/25 02:16:14;;;;;;;;;;;;;;;19.92;63.71;97884.47;2081865;28;19925;-66
2023/10/25 02:17:15;;;;;;;;;;;;;;;19.92;63.88;97888.00;2079803;28;20499;-65
2023/10/25 02:18:16;;;;;;;;;;;;;;;19.93;63.79;97886.13;2083931;28;19928;-65
2023/10/25 02:19:17;;;;;;;;;;;;;;;19.93;63.79;97886.13;2080401;28;19925;-66
2023/10/25 02:20:17;;;;;;;;;;;;;;;19.94;63.61;97879.69;2080802;28;19925;-66
2023/10/25 02:21:19;;;;;;;;;;;;;;;19.95;63.94;97889.41;2083198;28;20588;-66
2023/10/25 02:22:20;;;;;;;;;;;;;;;19.93;63.91;97875.38;2080678;28;20366;-67
2023/10/25 02:23:21;;;;;;;;;;;;;;;19.92;63.76;97881.78;2081326;28;20011;-65
2023/10/25 02:24:23;;;;;;;;;;;;;;;19.92;63.82;97882.63;2082637;28;19934;-67
2023/10/25 02:25:25;;;;;;;;;;;;;;;19.92;64.00;97888.00;2079518;28;20035;-66
2023/10/25 02:26:27;;;;;;;;;;;;;;;19.93;63.86;97880.75;2081860;28;20384;-65
2023/10/25 02:27:28;;;;;;;;;;;;;;;19.92;63.70;97879.94;2077613;28;19940;-66
2023/10/25 02:28:29;;;;;;;;;;;;;;;19.92;63.89;97877.25;2078918;28;20276;-66
2023/10/25 02:29:31;;;;;;;;;;;;;;;19.93;63.92;97878.06;2083151;28;19967;-66
2023/10/25 02:30:31;;;;;;;;;;;;;;;19.92;64.00;97887.16;2080571;28;19921;-66
2023/10/25 02:31:33;;;;;;;;;;;;;;;19.91;63.71;97880.16;2080019;28;19975;-66
2023/10/25 02:32:34;;;;;;;;;;;;;;;19.91;63.76;97890.91;2073425;28;19936;-65
2023/10/25 02:33:35;;;;;;;;;;;;;;;19.91;63.67;97882.84;2078215;28;20003;-66
2023/10/25 02:34:36;;;;;;;;;;;;;;;19.92;64.05;97879.09;2079177;28;19929;-66
2023/10/25 02:35:38;;;;;;;;;;;;;;;19.92;63.83;97874.56;2078325;28;19975;-66
2023/10/25 02:36:38;;;;;;;;;;;;;;;19.90;63.84;97871.25;2083471;28;19936;-66
2023/10/25 02:37:40;;;;;;;;;;;;;;;19.93;63.55;97875.38;2082002;28;19976;-66
2023/10/25 02:38:40;;;;;;;;;;;;;;;19.91;63.95;97878.28;2082713;28;19925;-66
2023/10/25 02:39:44;;;;;;;;;;;;;;;19.89;63.81;97880.38;2082188;28;20395;-66
2023/10/25 02:40:45;;;;;;;;;;;;;;;19.87;63.62;97877.09;2080300;28;20377;-67
2023/10/25 02:41:46;;;;;;;;;;;;;;;19.88;63.43;97884.13;2076101;28;19929;-65
2023/10/25 02:42:47;;;;;;;;;;;;;;;19.86;63.60;97881.69;2083175;28;19932;-66
2023/10/25 02:43:50;;;;;;;;;;;;;;;19.89;63.52;97887.63;2080258;28;19960;-66
2023/10/25 02:44:51;;;;;;;;;;;;;;;19.91;63.47;97882.84;2080891;28;19929;-67
2023/10/25 02:45:52;;;;;;;;;;;;;;;19.89;63.54;97880.38;2084537;28;19940;-66
2023/10/25 02:46:54;;;;;;;;;;;;;;;19.89;63.85;97874.97;2081241;28;19921;-66
2023/10/25 02:47:56;;;;;;;;;;;;;;;19.89;63.69;97868.78;2082403;28;20387;-66
2023/10/25 02:48:57;;;;;;;;;;;;;;;19.89;63.64;97866.09;2070373;28;19932;-66
2023/10/25 02:49:59;;;;;;;;;;;;;;;19.89;63.63;97863.41;2071921;28;20011;-66
2023/10/25 02:51:00;;;;;;;;;;;;;;;19.88;63.62;97861.78;2081827;28;19933;-66
2023/10/25 02:52:01;;;;;;;;;;;;;;;19.89;63.64;97856.16;2081104;28;20346;-66
2023/10/25 02:53:02;;;;;;;;;;;;;;;19.88;63.51;97861.78;2079719;28;20315;-66
2023/10/25 02:54:03;;;;;;;;;;;;;;;19.85;63.84;97855.78;2083708;28;19929;-66
2023/10/25 02:55:06;;;;;;;;;;;;;;;19.85;63.80;97857.66;2082977;28;19929;-65
2023/10/25 02:56:08;;;;;;;;;;;;;;;19.84;63.90;97859.56;2080718;28;19943;-65
2023/10/25 02:57:08;;;;;;;;;;;;;;;19.86;63.56;97856.59;2080015;28;20292;-64
2023/10/25 02:58:11;;;;;;;;;;;;;;;19.86;63.77;97854.75;2078150;28;19959;-65
2023/10/25 02:59:12;;;;;;;;;;;;;;;19.86;63.52;97857.47;2083329;28;19928;-65
2023/10/25 03:00:14;;;;;;;;;;;;;;;19.88;63.49;97859.09;2079201;28;19925;-65
2023/10/25 03:01:21;;;;;;;;;;;;;;;19.86;63.54;97864.69;2079280;28;19927;-66
2023/10/25 03:02:23;;;;;;;;;;;;;;;19.88;63.52;97857.22;2080915;28;19929;-66
2023/10/25 03:03:23;;;;;;;;;;;;;;;19.88;63.81;97857.22;2078618;28;19939;-65
2023/10/25 03:04:25;;;;;;;;;;;;;;;19.88;63.84;97859.09;2080991;28;19927;-66
2023/10/25 03:05:25;;;;;;;;;;;;;;;19.88;63.49;97861.78;2078787;28;19952;-64
2023/10/25 03:06:27;;;;;;;;;;;;;;;19.89;63.42;97866.09;2083602;28;20336;-65
2023/10/25 03:07:28;;;;;;;;;;;;;;;19.88;63.44;97873.34;2078776;28;19927;-66
2023/10/25 03:08:29;;;;;;;;;;;;;;;19.88;63.52;97877.91;2071906;28;23166;-64
2023/10/25 03:09:30;;;;;;;;;;;;;;;19.88;63.71;97869.84;2081261;28;20691;-64
2023/10/25 03:10:33;;;;;;;;;;;;;;;19.88;63.44;97873.34;2081583;28;19925;-65
2023/10/25 03:11:33;;;;;;;;;;;;;;;19.89;63.69;97866.09;2081157;28;20391;-65
2023/10/25 03:12:35;;;;;;;;;;;;;;;19.88;63.44;97872.53;2080704;28;19920;-66
2023/10/25 03:13:35;;;;;;;;;;;;;;;19.88;63.50;97869.84;2079792;28;19928;-65
2023/10/25 03:14:37;;;;;;;;;;;;;;;19.89;63.33;97874.16;2079967;28;20016;-65
2023/10/25 03:15:38;;;;;;;;;;;;;;;19.89;63.36;97879.56;2071333;28;19925;-65
2023/10/25 03:16:39;;;;;;;;;;;;;;;19.88;63.62;97877.91;2079230;28;20025;-65
2023/10/25 03:17:40;;;;;;;;;;;;;;;19.88;63.67;97873.34;2079704;28;19936;-65
2023/10/25 03:18:40;;;;;;;;;;;;;;;19.91;63.63;97872.06;2080450;28;20422;-65
2023/10/25 03:19:42;;;;;;;;;;;;;;;19.89;63.51;97874.97;2079521;28;19932;-65
2023/10/25 03:20:42;;;;;;;;;;;;;;;19.90;63.38;97875.81;2080479;28;20490;-66
2023/10/25 03:21:43;;;;;;;;;;;;;;;19.89;63.36;97874.97;2080080;28;20055;-66
2023/10/25 03:22:45;;;;;;;;;;;;;;;19.91;63.33;97877.47;2081379;28;20402;-66
2023/10/25 03:23:45;;;;;;;;;;;;;;;19.90;63.51;97873.13;2078669;28;19925;-66
2023/10/25 03:24:47;;;;;;;;;;;;;;;19.89;63.63;97876.84;2079908;28;20450;-66
2023/10/25 03:25:49;;;;;;;;;;;;;;;19.88;63.50;97872.53;2079695;28;20297;-65
2023/10/25 03:26:50;;;;;;;;;;;;;;;19.88;63.36;97862.59;2082506;28;20294;-65
2023/10/25 03:27:51;;;;;;;;;;;;;;;19.88;63.31;97867.97;2080203;28;20303;-66
2023/10/25 03:28:51;;;;;;;;;;;;;;;19.90;63.47;97862.38;2081804;28;19929;-65
2023/10/25 03:29:53;;;;;;;;;;;;;;;19.86;63.59;97860.16;2079741;28;19976;-66
2023/10/25 03:30:54;;;;;;;;;;;;;;;19.86;63.40;97865.53;2080877;28;19931;-65
2023/10/25 03:31:58;;;;;;;;;;;;;;;19.88;63.56;97862.59;2080988;28;19956;-66
2023/10/25 03:32:58;;;;;;;;;;;;;;;19.88;63.49;97859.91;2072188;28;19929;-64
2023/10/25 03:34:00;;;;;;;;;;;;;;;19.86;63.52;97857.47;2079968;28;20010;-65
2023/10/25 03:35:00;;;;;;;;;;;;;;;19.86;63.61;97865.53;2079516;28;19935;-65
2023/10/25 03:36:01;;;;;;;;;;;;;;;19.86;63.29;97862.84;2082731;28;20194;-65
2023/10/25 03:37:03;;;;;;;;;;;;;;;19.89;63.43;97866.09;2082884;28;20391;-65
2023/10/25 03:38:03;;;;;;;;;;;;;;;19.88;63.57;97869.84;2080339;28;19924;-65
2023/10/25 03:39:05;;;;;;;;;;;;;;;19.89;63.28;97868.78;2078364;28;20099;-65
2023/10/25 03:40:06;;;;;;;;;;;;;;;19.88;63.28;97862.59;2080371;28;21545;-65
2023/10/25 03:41:09;;;;;;;;;;;;;;;19.87;63.35;97871.72;2079734;28;19925;-65
2023/10/25 03:42:10;;;;;;;;;;;;;;;19.88;63.51;97867.16;2080151;28;19921;-66
2023/10/25 03:43:11;;;;;;;;;;;;;;;19.88;63.41;97864.47;2079998;28;20367;-66
2023/10/25 03:44:12;;;;;;;;;;;;;;;19.87;63.59;97866.34;2082169;28;19921;-64
2023/10/25 03:45:14;;;;;;;;;;;;;;;19.86;63.18;97867.38;2080036;28;19925;-65
2023/10/25 03:46:16;;;;;;;;;;;;;;;19.86;63.26;97860.16;2080423;28;19928;-66
2023/10/25 03:47:16;;;;;;;;;;;;;;;19.87;63.32;97860.97;2079859;28;19978;-65
2023/10/25 03:48:18;;;;;;;;;;;;;;;19.86;63.58;97865.53;2086184;28;20440;-66
2023/10/25 03:49:18;;;;;;;;;;;;;;;19.86;63.17;97865.53;2082081;28;19920;-66
2023/10/25 03:50:19;;;;;;;;;;;;;;;19.86;63.34;97862.84;2072756;28;20203;-65
2023/10/25 03:51:20;;;;;;;;;;;;;;;19.86;63.40;97862.84;2081383;28;19963;-66
2023/10/25 03:52:21;;;;;;;;;;;;;;;19.85;63.45;97855.78;2081639;28;19935;-66
2023/10/25 03:53:23;;;;;;;;;;;;;;;19.85;63.48;97863.88;2082347;28;19927;-66
2023/10/25 03:54:23;;;;;;;;;;;;;;;19.85;63.61;97858.50;2082579;28;19928;-66
2023/10/25 03:55:25;;;;;;;;;;;;;;;19.84;63.38;97858.72;2071816;28;20024;-65
2023/10/25 03:56:27;;;;;;;;;;;;;;;19.86;63.27;97862.84;2077162;28;19921;-66
2023/10/25 03:57:28;;;;;;;;;;;;;;;19.86;63.33;97865.53;2079177;28;20437;-65
2023/10/25 03:58:29;;;;;;;;;;;;;;;19.88;63.23;97859.09;2081617;28;19925;-66
2023/10/25 03:59:30;;;;;;;;;;;;;;;19.86;63.19;97857.47;2080364;28;19920;-66
2023/10/25 04:00:31;;;;;;;;;;;;;;;19.85;63.18;97850.41;2081582;28;19928;-66
2023/10/25 04:01:31;;;;;;;;;;;;;;;19.86;63.21;97854.75;2081751;28;19920;-65
2023/10/25 04:02:33;;;;;;;;;;;;;;;19.86;63.44;97854.75;2081053;28;21088;-65
2023/10/25 04:03:34;;;;;;;;;;;;;;;19.85;63.31;97852.28;2083313;28;19929;-65
2023/10/25 04:04:35;;;;;;;;;;;;;;;19.85;63.39;97845.03;2080391;28;20003;-66
2023/10/25 04:05:39;;;;;;;;;;;;;;;19.84;63.28;97846.09;2079321;28;19924;-66
2023/10/25 04:06:41;;;;;;;;;;;;;;;19.85;63.42;97858.50;2082881;28;20490;-66
2023/10/25 04:07:41;;;;;;;;;;;;;;;19.85;63.43;97853.09;2073990;28;19924;-66
2023/10/25 04:08:43;;;;;;;;;;;;;;;19.83;63.46;97849.81;2081477;28;20020;-64
2023/10/25 04:09:43;;;;;;;;;;;;;;;19.84;63.12;97847.97;2078983;28;19925;-66
2023/10/25 04:10:48;;;;;;;;;;;;;;;19.84;63.17;97851.47;2081813;28;20019;-66
2023/10/25 04:11:51;;;;;;;;;;;;;;;19.83;63.26;97847.13;2079823;28;19929;-65
2023/10/25 04:12:51;;;;;;;;;;;;;;;19.84;63.31;97851.47;2077859;28;19931;-65
2023/10/25 04:13:53;;;;;;;;;;;;;;;19.83;63.33;97855.19;2082140;28;19959;-65
2023/10/25 04:14:53;;;;;;;;;;;;;;;19.83;63.68;97849.00;2081879;28;20395;-65
2023/10/25 04:15:56;;;;;;;;;;;;;;;19.86;63.29;97857.47;2075839;28;20072;-65
2023/10/25 04:16:57;;;;;;;;;;;;;;;19.84;63.48;97851.47;2076611;28;19966;-66
2023/10/25 04:17:58;;;;;;;;;;;;;;;19.84;63.29;97854.16;2078569;28;19921;-65
2023/10/25 04:18:59;;;;;;;;;;;;;;;19.85;63.28;97853.09;2083189;28;19928;-65
2023/10/25 04:20:00;;;;;;;;;;;;;;;19.85;63.50;97847.72;2081561;28;19936;-66
2023/10/25 04:21:03;;;;;;;;;;;;;;;19.83;63.29;97849.81;2082595;28;19975;-65
2023/10/25 04:22:03;;;;;;;;;;;;;;;19.85;63.45;97842.34;2079030;28;19932;-64
2023/10/25 04:23:05;;;;;;;;;;;;;;;19.86;63.36;97844.00;2081191;28;20011;-66
2023/10/25 04:24:06;;;;;;;;;;;;;;;19.84;63.33;97839.91;2078713;28;19925;-65
2023/10/25 04:25:09;;;;;;;;;;;;;;;19.84;63.58;97840.72;2079180;28;19929;-65
2023/10/25 04:26:10;;;;;;;;;;;;;;;19.83;63.36;97833.66;2080932;28;21172;-65
2023/10/25 04:27:13;;;;;;;;;;;;;;;19.83;63.47;97833.66;2079343;28;20376;-65
2023/10/25 04:28:14;;;;;;;;;;;;;;;19.82;63.41;97834.72;2080916;28;19931;-66
2023/10/25 04:29:15;;;;;;;;;;;;;;;19.81;63.26;97830.41;2084362;28;19925;-64
2023/10/25 04:30:16;;;;;;;;;;;;;;;19.82;63.26;97840.13;2080925;28;19932;-65
2023/10/25 04:31:20;;;;;;;;;;;;;;;19.82;63.21;97831.22;2081860;28;20049;-65
2023/10/25 04:32:21;;;;;;;;;;;;;;;19.82;63.50;97826.66;2079281;28;20175;-66
2023/10/25 04:33:22;;;;;;;;;;;;;;;19.83;63.37;97832.84;2083430;28;19924;-66
2023/10/25 04:34:23;;;;;;;;;;;;;;;19.84;63.05;97838.03;2070628;28;20299;-66
2023/10/25 04:35:25;;;;;;;;;;;;;;;19.84;63.29;97834.50;2082210;28;20012;-66
2023/10/25 04:36:25;;;;;;;;;;;;;;;19.84;63.60;97835.34;2076769;28;19932;-65
2023/10/25 04:37:27;;;;;;;;;;;;;;;19.82;63.44;97831.22;2080688;28;20270;-65
2023/10/25 04:38:27;;;;;;;;;;;;;;;19.82;63.23;97832.03;2081107;28;19927;-65
2023/10/25 04:39:29;;;;;;;;;;;;;;;19.83;63.20;97833.66;2083108;28;20459;-66
2023/10/25 04:40:30;;;;;;;;;;;;;;;19.83;63.25;97835.53;2080994;28;19925;-66
2023/10/25 04:41:32;;;;;;;;;;;;;;;19.83;63.33;97833.66;2080005;28;19921;-65
2023/10/25 04:42:34;;;;;;;;;;;;;;;19.83;63.29;97835.53;2080257;28;19921;-65
2023/10/25 04:43:36;;;;;;;;;;;;;;;19.81;63.31;97833.09;2082556;28;19975;-65
2023/10/25 04:44:36;;;;;;;;;;;;;;;19.82;63.42;97832.03;2080991;28;19935;-65
2023/10/25 04:45:38;;;;;;;;;;;;;;;19.82;63.24;97839.28;2079882;28;19921;-66
2023/10/25 04:46:38;;;;;;;;;;;;;;;19.81;63.37;97835.78;2081326;28;20510;-66
2023/10/25 04:47:40;;;;;;;;;;;;;;;19.82;63.42;97834.72;2081357;28;20084;-65
2023/10/25 04:48:40;;;;;;;;;;;;;;;19.83;63.13;97830.16;2082215;28;19932;-65
2023/10/25 04:49:42;;;;;;;;;;;;;;;19.84;63.11;97839.91;2084951;28;20024;-65
2023/10/25 04:50:43;;;;;;;;;;;;;;;19.81;63.07;97835.78;2079521;28;19925;-65
2023/10/25 04:51:43;;;;;;;;;;;;;;;19.82;63.16;97840.13;2080470;28;19924;-66
2023/10/25 04:52:45;;;;;;;;;;;;;;;19.83;63.22;97838.25;2068644;28;19929;-66
2023/10/25 04:53:46;;;;;;;;;;;;;;;19.82;63.21;97834.72;2080339;28;19925;-65
2023/10/25 04:54:47;;;;;;;;;;;;;;;19.82;63.22;97834.72;2080301;28;19959;-65
2023/10/25 04:55:48;;;;;;;;;;;;;;;19.82;63.17;97837.41;2082774;28;19920;-65
2023/10/25 04:56:49;;;;;;;;;;;;;;;19.82;63.33;97833.91;2084789;28;20015;-65
2023/10/25 04:57:51;;;;;;;;;;;;;;;19.81;63.50;97830.41;2081607;28;19929;-65
2023/10/25 04:58:53;;;;;;;;;;;;;;;19.80;63.64;97826.06;2080440;28;19929;-66
2023/10/25 04:59:53;;;;;;;;;;;;;;;19.80;63.28;97820.69;2081833;28;19939;-65
2023/10/25 05:00:55;;;;;;;;;;;;;;;19.81;63.32;97821.53;2081116;28;20478;-66
2023/10/25 05:01:56;;;;;;;;;;;;;;;19.80;63.18;97828.75;2084745;28;20394;-64
2023/10/25 05:02:56;;;;;;;;;;;;;;;19.81;63.31;97821.53;2081041;28;19925;-66
2023/10/25 05:03:58;;;;;;;;;;;;;;;19.81;63.52;97825.03;2085216;28;19932;-66
2023/10/25 05:04:58;;;;;;;;;;;;;;;19.81;63.35;97833.09;2084543;28;19920;-65
2023/10/25 05:06:04;;;;;;;;;;;;;;;19.80;63.52;97827.94;2079577;28;20415;-65
2023/10/25 05:07:05;;;;;;;;;;;;;;;19.81;63.35;97833.09;2081335;28;20260;-65
2023/10/25 05:08:07;;;;;;;;;;;;;;;19.81;63.22;97826.91;2082622;28;19925;-66
2023/10/25 05:09:08;;;;;;;;;;;;;;;19.80;63.60;97828.75;2081545;28;19955;-65
2023/10/25 05:10:12;;;;;;;;;;;;;;;19.80;63.33;97826.06;2080516;28;19935;-64
2023/10/25 05:11:14;;;;;;;;;;;;;;;19.78;63.36;97820.13;2075326;28;19964;-66
2023/10/25 05:12:18;;;;;;;;;;;;;;;19.79;63.10;97824.44;2079839;28;19925;-66
2023/10/25 05:13:20;;;;;;;;;;;;;;;19.79;63.27;97827.13;2084186;28;19928;-64
2023/10/25 05:14:22;;;;;;;;;;;;;;;19.80;63.32;97822.56;2080995;28;20027;-65
2023/10/25 05:15:24;;;;;;;;;;;;;;;19.78;63.20;97821.97;2080208;28;20790;-66
2023/10/25 05:16:26;;;;;;;;;;;;;;;19.78;63.47;97825.50;2085232;28;20019;-65
2023/10/25 05:17:27;;;;;;;;;;;;;;;19.80;63.20;97822.56;2070825;28;19936;-65
2023/10/25 05:18:28;;;;;;;;;;;;;;;19.81;63.10;97829.59;2082552;28;19925;-66
2023/10/25 05:19:30;;;;;;;;;;;;;;;19.79;63.13;97827.13;2084516;28;19925;-66
2023/10/25 05:20:31;;;;;;;;;;;;;;;19.78;63.11;97820.13;2082447;28;19924;-66
2023/10/25 05:21:36;;;;;;;;;;;;;;;19.77;63.44;97829.22;2083154;28;20012;-66
2023/10/25 05:22:37;;;;;;;;;;;;;;;19.78;63.18;97832.72;2080625;28;19974;-65
2023/10/25 05:23:39;;;;;;;;;;;;;;;19.78;63.29;97825.50;2082105;28;19925;-66
2023/10/25 05:24:40;;;;;;;;;;;;;;;19.78;63.44;97830.88;2082513;28;19936;-65
2023/10/25 05:25:42;;;;;;;;;;;;;;;19.79;63.02;97837.88;2082172;28;20311;-64
2023/10/25 05:26:43;;;;;;;;;;;;;;;19.79;63.04;97826.31;2079940;28;19925;-66
2023/10/25 05:27:44;;;;;;;;;;;;;;;19.79;62.91;97824.44;2080487;28;19963;-66
2023/10/25 05:28:48;;;;;;;;;;;;;;;19.79;63.02;97831.69;2083374;28;20027;-66
2023/10/25 05:29:49;;;;;;;;;;;;;;;19.79;63.09;97832.50;2078911;28;19921;-66
2023/10/25 05:30:50;;;;;;;;;;;;;;;19.79;62.90;97829.00;2078996;28;19972;-66
2023/10/25 05:31:53;;;;;;;;;;;;;;;19.80;63.21;97833.31;2079283;28;19974;-66
2023/10/25 05:32:59;;;;;;;;;;;;;;;19.80;63.10;97834.13;2083872;28;19928;-64
2023/10/25 05:34:00;;;;;;;;;;;;;;;19.79;63.05;97831.69;2083330;28;19927;-63
2023/10/25 05:35:03;;;;;;;;;;;;;;;19.79;63.11;97834.38;2075890;28;19929;-65
2023/10/25 05:36:04;;;;;;;;;;;;;;;19.79;63.10;97837.88;2081742;28;19920;-65
2023/10/25 05:37:06;;;;;;;;;;;;;;;19.79;63.04;97831.69;2079918;28;19963;-66
2023/10/25 05:38:06;;;;;;;;;;;;;;;19.79;63.53;97834.38;2080711;28;20292;-66
2023/10/25 05:39:08;;;;;;;;;;;;;;;19.80;63.11;97834.13;2075951;28;19931;-66
2023/10/25 05:40:09;;;;;;;;;;;;;;;19.80;63.18;97839.50;2081748;28;20614;-66
2023/10/25 05:41:13;;;;;;;;;;;;;;;19.80;62.99;97833.31;2079254;28;19971;-65
2023/10/25 05:42:16;;;;;;;;;;;;;;;19.78;63.35;97836.25;2081963;28;19932;-66
2023/10/25 05:43:21;;;;;;;;;;;;;;;19.78;63.27;97827.34;2081086;28;20346;-65
2023/10/25 05:44:23;;;;;;;;;;;;;;;19.77;63.01;97834.59;2082921;28;19924;-65
2023/10/25 05:45:25;;;;;;;;;;;;;;;19.78;63.36;97836.25;2082012;28;19980;-66
2023/10/25 05:46:25;;;;;;;;;;;;;;;19.77;63.00;97844.53;2072260;28;19924;-64
2023/10/25 05:47:27;;;;;;;;;;;;;;;19.77;63.02;97839.97;2081402;28;19924;-66
2023/10/25 05:48:28;;;;;;;;;;;;;;;19.77;63.15;97845.38;2081413;28;19970;-65
2023/10/25 05:49:30;;;;;;;;;;;;;;;19.78;63.05;97841.63;2072962;28;19921;-66
2023/10/25 05:50:31;;;;;;;;;;;;;;;19.79;63.29;97842.47;2081779;28;20323;-64
2023/10/25 05:51:33;;;;;;;;;;;;;;;19.77;62.95;97842.66;2081244;28;20016;-66
2023/10/25 05:52:33;;;;;;;;;;;;;;;19.78;63.04;97841.63;2084897;28;19935;-66
2023/10/25 05:53:35;;;;;;;;;;;;;;;19.78;63.21;97847.03;2078997;28;20405;-65
2023/10/25 05:54:36;;;;;;;;;;;;;;;19.78;63.19;97847.03;2082016;28;20292;-67
2023/10/25 05:55:38;;;;;;;;;;;;;;;19.78;63.11;97847.03;2079699;28;19929;-66
2023/10/25 05:56:39;;;;;;;;;;;;;;;19.77;63.03;97848.06;2077621;28;19925;-66
2023/10/25 05:57:41;;;;;;;;;;;;;;;19.77;62.93;97847.25;2080487;28;20531;-66
2023/10/25 05:58:42;;;;;;;;;;;;;;;19.78;63.20;97846.19;2079102;28;20207;-66
2023/10/25 05:59:45;;;;;;;;;;;;;;;19.77;63.01;97845.38;2082895;28;19928;-65
2023/10/25 06:00:49;;;;;;;;;;;;;;;19.75;63.20;97844.78;2074899;28;19935;-66
2023/10/25 06:01:51;;;;;;;;;;;;;;;19.77;62.94;97847.25;2082536;28;20632;-66
2023/10/25 06:02:55;;;;;;;;;;;;;;;19.76;62.95;97851.81;2081575;28;19929;-66
2023/10/25 06:03:59;;;;;;;;;;;;;;;19.77;63.31;97849.94;2083497;28;19959;-67
2023/10/25 06:05:00;;;;;;;;;;;;;;;19.77;62.85;97848.06;2079489;28;19929;-66
2023/10/25 06:06:02;;;;;;;;;;;;;;;19.77;63.28;97842.66;2078647;28;20360;-67
2023/10/25 06:07:03;;;;;;;;;;;;;;;19.77;62.93;97844.53;2081456;28;19932;-66
2023/10/25 06:08:05;;;;;;;;;;;;;;;19.77;63.00;97842.66;2082747;28;20387;-66
2023/10/25 06:09:06;;;;;;;;;;;;;;;19.79;62.93;97850.53;2079316;28;19920;-66
2023/10/25 06:10:08;;;;;;;;;;;;;;;19.78;63.24;97847.03;2081879;28;20032;-65
2023/10/25 06:11:09;;;;;;;;;;;;;;;19.78;63.01;97843.47;2079885;28;19921;-67
2023/10/25 06:12:11;;;;;;;;;;;;;;;19.77;62.92;97856.13;2081500;28;19921;-66
2023/10/25 06:13:12;;;;;;;;;;;;;;;19.77;62.94;97845.38;2081120;28;19925;-66
2023/10/25 06:14:14;;;;;;;;;;;;;;;19.77;63.09;97853.44;2078703;28;23139;-66
2023/10/25 06:15:16;;;;;;;;;;;;;;;19.77;63.13;97853.44;2075446;28;19920;-66
2023/10/25 06:16:18;;;;;;;;;;;;;;;19.78;62.83;97854.25;2079274;28;19921;-66
2023/10/25 06:17:19;;;;;;;;;;;;;;;19.77;63.17;97849.94;2077850;28;20291;-66
2023/10/25 06:18:20;;;;;;;;;;;;;;;19.78;63.26;97863.16;2076957;28;20004;-67
2023/10/25 06:19:21;;;;;;;;;;;;;;;19.77;63.34;97861.50;2080046;28;19929;-64
2023/10/25 06:20:23;;;;;;;;;;;;;;;19.78;63.25;97860.47;2084340;28;19934;-63
2023/10/25 06:21:23;;;;;;;;;;;;;;;19.76;63.22;97861.75;2083394;28;19933;-63
2023/10/25 06:22:25;;;;;;;;;;;;;;;19.77;63.17;97866.88;2082490;28;20367;-64
2023/10/25 06:23:28;;;;;;;;;;;;;;;19.74;63.13;97856.59;2079034;28;19925;-64
2023/10/25 06:24:30;;;;;;;;;;;;;;;19.76;63.35;97856.38;2074275;28;20291;-65
2023/10/25 06:25:30;;;;;;;;;;;;;;;19.76;63.03;97865.25;2081935;28;19929;-65
2023/10/25 06:26:32;;;;;;;;;;;;;;;19.75;63.10;97857.41;2078766;28;19935;-67
2023/10/25 06:27:33;;;;;;;;;;;;;;;19.76;63.30;97861.75;2078570;28;19925;-65
2023/10/25 06:28:35;;;;;;;;;;;;;;;19.77;63.12;97860.69;2072653;28;20040;-66
2023/10/25 06:29:35;;;;;;;;;;;;;;;19.76;62.96;97865.25;2082431;28;20282;-67
2023/10/25 06:30:38;;;;;;;;;;;;;;;19.78;63.38;97873.94;2081592;28;19931;-66
2023/10/25 06:31:39;;;;;;;;;;;;;;;19.75;63.23;97866.31;2081173;28;20391;-66
2023/10/25 06:32:40;;;;;;;;;;;;;;;19.75;63.14;97857.41;2082083;28;20003;-66
2023/10/25 06:33:41;;;;;;;;;;;;;;;19.75;63.23;97868.16;2079421;28;19928;-66
2023/10/25 06:34:42;;;;;;;;;;;;;;;19.73;62.89;97865.72;2078227;28;20008;-66
2023/10/25 06:35:44;;;;;;;;;;;;;;;19.74;62.79;97874.59;2073304;28;19929;-67